Elma, Iowa
Current Conditions -  °F | °C
As of 6:55 AM on Thursday 27 Nov 2014 (Local Time) from KCCY Reporting Station
Clear Clear  
Wind Chill: -16°   Ceiling: Unl
Heat Index:   Visibility: 10mi
Dew Point: -8°   Wind: 13mph
Humidity: 66%   Direction: 310°NW
Pressure: 30.45"   Gusts: NA
Location:  43.25°N, 92.44°W
Report Text: KCCY 271255Z AUTO 31011KT 10SM CLR M17/M22 A3045 RMK AO2
Loading
Personal Weather Stations






























Interactive Weather Map New forecast layout! Learn more

10-Day Weather Forecast

Advertisements
Track Severe Weather on mobile